Time;durP1;ratioP1;P1;durP2;ratioP2;P2;SDS_P1;SDS_P2;PMS_P1;PMS_P2;Temp;Humidity;BMP_temperature;BMP_pressure;BME280_temperature;BME280_humidity;BME280_pressure;Samples;Min_cycle;Max_cycle;Signal;HPM_P1;HPM_P2
2023/07/22 00:02:30;;;;;;;20.95;6.03;;;;;;;13.75;100.00;100980.50;6275262;28;20055;-73
2023/07/22 00:05:32;;;;;;;9.88;4.93;;;;;;;13.71;100.00;100979.81;6275776;28;20049;-73
2023/07/22 00:08:33;;;;;;;12.43;6.07;;;;;;;13.75;100.00;100982.28;6275433;28;20049;-72
2023/07/22 00:11:35;;;;;;;11.25;5.25;;;;;;;13.73;100.00;100976.28;6277680;28;20056;-72
2023/07/22 00:14:40;;;;;;;11.25;5.28;;;;;;;13.67;100.00;100981.00;6289451;28;20048;-72
2023/07/22 00:17:42;;;;;;;10.60;4.88;;;;;;;13.76;100.00;100982.19;6286869;28;20044;-72
2023/07/22 00:20:44;;;;;;;10.30;5.35;;;;;;;13.63;100.00;100984.75;6288751;28;20041;-72
2023/07/22 00:23:46;;;;;;;10.55;4.88;;;;;;;13.64;100.00;100989.09;6286717;28;20357;-72
2023/07/22 00:26:47;;;;;;;13.02;5.07;;;;;;;13.64;100.00;100980.31;6288015;28;20045;-72
2023/07/22 00:29:50;;;;;;;12.68;5.45;;;;;;;13.56;100.00;100979.94;6287634;28;20128;-72
2023/07/22 00:32:51;;;;;;;12.90;5.00;;;;;;;13.67;100.00;100974.84;6286983;28;20052;-73
2023/07/22 00:35:53;;;;;;;10.85;5.05;;;;;;;13.70;100.00;100977.28;6287894;28;20055;-72
2023/07/22 00:38:55;;;;;;;11.95;5.07;;;;;;;13.47;100.00;100980.53;6286490;28;20056;-73
2023/07/22 00:41:56;;;;;;;14.40;5.65;;;;;;;13.28;100.00;100978.16;6287927;28;20053;-73
2023/07/22 00:44:59;;;;;;;10.55;5.13;;;;;;;13.19;100.00;100968.97;6286552;28;20053;-72
2023/07/22 00:48:00;;;;;;;11.13;5.70;;;;;;;13.26;100.00;100978.22;6288752;28;20056;-72
2023/07/22 00:51:02;;;;;;;11.52;5.38;;;;;;;13.07;100.00;100972.34;6285775;28;20041;-72
2023/07/22 00:54:04;;;;;;;11.02;5.43;;;;;;;13.16;100.00;100970.00;6288799;28;20059;-72
2023/07/22 00:57:07;;;;;;;14.98;5.78;;;;;;;13.12;100.00;100975.56;6285294;28;20064;-73
2023/07/22 01:00:12;;;;;;;15.40;6.47;;;;;;;13.10;100.00;100967.75;6289846;28;20441;-73
2023/07/22 01:03:13;;;;;;;11.40;5.05;;;;;;;13.18;100.00;100976.06;6283945;28;20049;-73
2023/07/22 01:06:17;;;;;;;13.70;5.20;;;;;;;13.17;100.00;100976.13;6290625;28;20053;-72
2023/07/22 01:09:18;;;;;;;11.35;5.20;;;;;;;13.25;100.00;100980.97;6283251;28;20044;-72
2023/07/22 01:12:19;;;;;;;13.88;5.45;;;;;;;13.33;100.00;100976.09;6290853;28;20352;-72
2023/07/22 01:15:23;;;;;;;10.85;4.97;;;;;;;13.37;100.00;100978.44;6274481;28;20049;-72
2023/07/22 01:18:25;;;;;;;12.15;5.68;;;;;;;13.32;100.00;100980.53;6290770;28;20134;-73
2023/07/22 01:21:27;;;;;;;14.07;5.63;;;;;;;13.11;100.00;100972.06;6282741;28;20044;-72
2023/07/22 01:24:30;;;;;;;17.70;6.28;;;;;;;13.20;100.00;100976.78;6274391;28;20049;-72
2023/07/22 01:27:32;;;;;;;10.35;4.75;;;;;;;13.02;100.00;100970.00;6274493;28;20048;-72
2023/07/22 01:30:33;;;;;;;15.63;5.35;;;;;;;12.97;100.00;100968.56;6274505;28;20056;-73
2023/07/22 01:33:35;;;;;;;17.92;5.30;;;;;;;13.04;100.00;100976.03;6273983;28;20346;-72
2023/07/22 01:36:36;;;;;;;13.63;5.78;;;;;;;12.94;100.00;100969.59;6274703;28;20049;-72
2023/07/22 01:39:39;;;;;;;14.45;5.55;;;;;;;12.86;100.00;100961.31;6274408;28;20365;-72
2023/07/22 01:42:41;;;;;;;14.45;5.57;;;;;;;12.94;100.00;100962.56;6273908;28;20053;-72
2023/07/22 01:45:42;;;;;;;13.18;5.07;;;;;;;12.87;100.00;100968.28;6274535;28;20048;-72
2023/07/22 01:48:43;;;;;;;16.25;5.53;;;;;;;12.81;100.00;100964.22;6274213;28;20372;-72
2023/07/22 01:51:45;;;;;;;12.27;4.82;;;;;;;12.80;100.00;100965.13;6276039;28;20037;-72
2023/07/22 01:54:48;;;;;;;9.82;5.88;;;;;;;12.95;100.00;100960.75;6278390;28;20052;-72
2023/07/22 01:57:49;;;;;;;10.45;4.95;;;;;;;12.91;100.00;100968.00;6278730;28;20059;-72
2023/07/22 02:00:51;;;;;;;12.63;4.82;;;;;;;13.00;100.00;100965.75;6278480;28;20103;-72
2023/07/22 02:03:52;;;;;;;9.70;4.70;;;;;;;13.00;100.00;100974.53;6278363;28;20044;-72
2023/07/22 02:06:54;;;;;;;12.32;5.20;;;;;;;13.06;100.00;100968.03;6286808;28;20075;-72
2023/07/22 02:09:57;;;;;;;13.90;4.88;;;;;;;13.08;100.00;100974.03;6278602;28;20048;-72
2023/07/22 02:12:59;;;;;;;8.85;4.75;;;;;;;13.04;100.00;100967.28;6277862;28;20353;-72
2023/07/22 02:16:01;;;;;;;11.32;4.85;;;;;;;12.97;100.00;100964.13;6278335;28;20068;-72
2023/07/22 02:19:02;;;;;;;10.32;4.57;;;;;;;12.93;100.00;100962.63;6278021;28;20368;-72
2023/07/22 02:22:04;;;;;;;13.80;5.07;;;;;;;12.84;100.00;100973.72;6277816;28;20073;-72
2023/07/22 02:25:10;;;;;;;12.85;5.72;;;;;;;12.85;100.00;100971.00;6277746;28;20349;-72
2023/07/22 02:28:11;;;;;;;11.05;4.70;;;;;;;12.85;100.00;100976.28;6278057;28;20045;-72
2023/07/22 02:31:13;;;;;;;13.60;4.30;;;;;;;12.75;100.00;100979.53;6277901;28;20041;-72
2023/07/22 02:34:14;;;;;;;11.82;5.20;;;;;;;12.66;100.00;100978.28;6277477;28;20053;-72
2023/07/22 02:37:16;;;;;;;8.65;4.28;;;;;;;12.64;100.00;100986.28;6277729;28;20052;-72
2023/07/22 02:40:19;;;;;;;12.00;4.72;;;;;;;12.57;100.00;100986.72;6277497;28;20357;-72
2023/07/22 02:43:20;;;;;;;10.82;4.47;;;;;;;12.64;100.00;100988.94;6277043;28;20049;-72
2023/07/22 02:46:21;;;;;;;10.57;4.82;;;;;;;12.65;100.00;100982.72;6277477;28;20051;-77
2023/07/22 02:49:23;;;;;;;15.10;4.65;;;;;;;12.67;100.00;100986.13;6266480;28;20049;-77
2023/07/22 02:52:25;;;;;;;12.48;5.32;;;;;;;12.65;100.00;100981.88;6285071;28;20087;-77
2023/07/22 02:55:28;;;;;;;13.65;4.57;;;;;;;12.75;100.00;100992.72;6285705;28;20143;-77
2023/07/22 02:58:29;;;;;;;20.90;6.47;;;;;;;12.43;100.00;100985.72;6276456;28;20060;-77
2023/07/22 03:01:31;;;;;;;9.80;3.97;;;;;;;12.44;100.00;100986.56;6276676;28;20055;-77
2023/07/22 03:04:33;;;;;;;11.45;4.57;;;;;;;12.53;100.00;101001.03;6277947;28;20060;-77
2023/07/22 03:07:34;;;;;;;15.60;4.55;;;;;;;12.63;100.00;100995.16;6285217;28;20337;-77
2023/07/22 03:10:37;;;;;;;12.05;4.43;;;;;;;12.70;100.00;100996.47;6278519;28;20053;-76
2023/07/22 03:13:38;;;;;;;17.75;5.03;;;;;;;12.60;100.00;100997.09;6291297;28;20056;-77
2023/07/22 03:16:40;;;;;;;14.13;4.05;;;;;;;12.67;100.00;100986.13;6279191;28;20474;-77
2023/07/22 03:19:41;;;;;;;10.38;4.78;;;;;;;12.68;100.00;100992.25;6282431;28;20390;-77
2023/07/22 03:22:43;;;;;;;10.48;4.40;;;;;;;12.61;100.00;100991.72;6276142;28;20045;-76
2023/07/22 03:25:45;;;;;;;12.00;5.10;;;;;;;12.67;100.00;101006.34;6284785;28;20060;-77
2023/07/22 03:28:47;;;;;;;12.27;4.93;;;;;;;12.57;100.00;101003.41;6276558;28;20049;-77
2023/07/22 03:31:49;;;;;;;9.40;4.53;;;;;;;12.63;100.00;101013.59;6284446;28;20341;-77
2023/07/22 03:34:51;;;;;;;13.40;4.40;;;;;;;12.67;100.00;101015.13;6284596;28;20135;-77
2023/07/22 03:37:53;;;;;;;9.90;4.43;;;;;;;12.72;100.00;101030.69;6280317;28;20048;-77
2023/07/22 03:40:56;;;;;;;12.55;4.78;;;;;;;12.69;100.00;101017.66;6280193;28;20056;-77
2023/07/22 03:43:57;;;;;;;13.02;4.63;;;;;;;12.66;100.00;101015.19;6275819;28;20048;-77
2023/07/22 03:47:00;;;;;;;9.93;4.63;;;;;;;12.66;100.00;101018.69;6276264;28;20060;-76
2023/07/22 03:50:02;;;;;;;11.88;4.95;;;;;;;12.70;100.00;101027.28;6262559;28;20045;-77
2023/07/22 03:53:03;;;;;;;14.48;5.50;;;;;;;12.72;100.00;101019.25;6258733;28;20045;-77
2023/07/22 03:56:06;;;;;;;8.10;3.97;;;;;;;12.72;100.00;101020.13;6256518;28;20052;-77
2023/07/22 03:59:08;;;;;;;13.65;4.55;;;;;;;12.69;100.00;101018.50;6256348;28;20048;-77
2023/07/22 04:02:09;;;;;;;9.48;4.80;;;;;;;12.64;100.00;101015.28;6256879;28;20508;-77
2023/07/22 04:05:11;;;;;;;8.32;4.15;;;;;;;12.59;100.00;101017.34;6256468;28;20051;-77
2023/07/22 04:08:13;;;;;;;11.25;4.63;;;;;;;12.60;100.00;101016.41;6267305;28;20049;-77
2023/07/22 04:11:15;;;;;;;8.98;4.15;;;;;;;12.62;100.00;101014.53;6255069;28;20076;-77
2023/07/22 04:14:17;;;;;;;11.35;4.57;;;;;;;12.62;100.00;101029.50;6257833;28;20052;-77
2023/07/22 04:17:18;;;;;;;9.40;4.43;;;;;;;12.60;100.00;101028.75;6254952;28;20256;-77
2023/07/22 04:20:19;;;;;;;16.92;5.38;;;;;;;12.65;100.00;101031.97;6259014;28;20044;-77
2023/07/22 04:23:21;;;;;;;10.50;4.85;;;;;;;12.64;100.00;101039.03;6262804;28;20052;-77
2023/07/22 04:26:24;;;;;;;15.23;4.53;;;;;;;12.67;100.00;101049.41;6264826;28;20056;-77
2023/07/22 04:29:25;;;;;;;12.23;4.25;;;;;;;12.68;100.00;101044.97;6265242;28;20045;-77
2023/07/22 04:32:26;;;;;;;9.98;4.20;;;;;;;12.72;100.00;101040.34;6261365;28;20606;-77
2023/07/22 04:35:30;;;;;;;9.07;3.70;;;;;;;12.70;100.00;101049.22;6254285;28;20045;-77
2023/07/22 04:38:32;;;;;;;14.73;4.88;;;;;;;12.71;100.00;101050.06;6259772;28;20049;-76
2023/07/22 04:41:34;;;;;;;9.10;4.07;;;;;;;12.69;100.00;101052.78;6260633;28;20045;-77
2023/07/22 04:44:36;;;;;;;9.52;4.32;;;;;;;12.72;100.00;101057.06;6257504;28;20040;-77
2023/07/22 04:47:38;;;;;;;11.00;3.85;;;;;;;12.80;100.00;101059.22;6256826;28;20045;-77
2023/07/22 04:50:40;;;;;;;8.98;3.95;;;;;;;12.77;100.00;101059.44;6283145;28;20131;-77
2023/07/22 04:53:42;;;;;;;17.40;4.75;;;;;;;12.78;100.00;101067.25;6274675;28;20336;-72
2023/07/22 04:56:45;;;;;;;15.18;4.45;;;;;;;12.79;100.00;101065.44;6274707;28;20361;-72
2023/07/22 04:59:46;;;;;;;18.67;5.28;;;;;;;12.84;100.00;101066.03;6275144;28;20190;-72
2023/07/22 05:02:48;;;;;;;11.90;4.53;;;;;;;12.90;100.00;101071.81;6274443;28;20051;-72
2023/07/22 05:05:49;;;;;;;13.63;4.80;;;;;;;12.92;100.00;101064.66;6275088;28;20059;-72
2023/07/22 05:08:51;;;;;;;17.75;5.30;;;;;;;12.91;100.00;101065.59;6274749;28;20040;-72
2023/07/22 05:11:53;;;;;;;14.15;4.22;;;;;;;12.88;100.00;101073.69;6274366;28;20059;-72
2023/07/22 05:14:55;;;;;;;15.35;4.60;;;;;;;12.92;100.00;101064.66;6274625;28;20448;-72
2023/07/22 05:17:56;;;;;;;13.35;4.82;;;;;;;12.96;100.00;101067.97;6273475;28;20056;-72
2023/07/22 05:20:58;;;;;;;18.20;4.78;;;;;;;12.88;100.00;101070.19;6274802;28;20045;-72
2023/07/22 05:23:59;;;;;;;15.60;5.47;;;;;;;12.92;100.00;101063.81;6274061;28;20056;-72
2023/07/22 05:27:02;;;;;;;16.15;4.88;;;;;;;13.03;100.00;101071.94;6278699;28;20433;-72
2023/07/22 05:30:04;;;;;;;13.90;5.40;;;;;;;13.03;100.00;101079.84;6279145;28;20078;-72
2023/07/22 05:33:05;;;;;;;14.02;5.75;;;;;;;12.99;100.00;101075.72;6278734;28;20041;-72
2023/07/22 05:36:07;;;;;;;10.10;4.90;;;;;;;12.98;100.00;101074.00;6279241;28;20045;-72
2023/07/22 05:39:08;;;;;;;19.17;5.50;;;;;;;13.00;100.00;101079.22;6278823;28;20060;-72
2023/07/22 05:42:11;;;;;;;15.02;5.53;;;;;;;12.97;100.00;101080.22;6278979;28;20068;-72
2023/07/22 05:45:15;;;;;;;16.10;5.80;;;;;;;12.97;100.00;101090.78;6278749;28;20163;-73
2023/07/22 05:48:16;;;;;;;15.35;5.90;;;;;;;13.04;100.00;101078.09;6279150;28;20052;-72
2023/07/22 05:51:18;;;;;;;14.13;5.20;;;;;;;13.06;100.00;101081.47;6278504;28;20049;-72
2023/07/22 05:54:19;;;;;;;15.75;6.20;;;;;;;13.21;100.00;101078.78;6278668;28;20076;-71
2023/07/22 05:57:22;;;;;;;17.00;5.50;;;;;;;13.23;100.00;101081.38;6278690;28;20361;-71
2023/07/22 06:00:23;;;;;;;12.88;5.35;;;;;;;13.21;100.00;101083.19;6278708;28;20060;-74
2023/07/22 06:03:25;;;;;;;14.00;5.68;;;;;;;13.23;100.00;101088.44;6277960;28;20049;-71
2023/07/22 06:06:26;;;;;;;17.33;6.25;;;;;;;13.38;100.00;101071.69;6286669;28;20364;-72
2023/07/22 06:09:27;;;;;;;11.82;5.20;;;;;;;13.39;100.00;101081.28;6286835;28;20349;-72
2023/07/22 06:12:30;;;;;;;11.73;5.18;;;;;;;13.50;100.00;101075.41;6277783;28;20048;-72
2023/07/22 06:15:32;;;;;;;11.27;5.35;;;;;;;13.61;100.00;101078.22;6278287;28;20055;-71
2023/07/22 06:18:33;;;;;;;17.58;5.53;;;;;;;13.63;100.00;101079.00;6278037;28;20555;-72
2023/07/22 06:21:35;;;;;;;18.25;7.05;;;;;;;13.69;100.00;101078.59;6286216;28;20052;-72
2023/07/22 06:24:36;;;;;;;12.75;4.70;;;;;;;13.76;100.00;101074.63;6286006;28;20048;-72
2023/07/22 06:27:39;;;;;;;11.15;4.88;;;;;;;13.74;100.00;101084.47;6277907;28;20045;-71
2023/07/22 06:30:40;;;;;;;13.73;5.95;;;;;;;13.81;100.00;101083.16;6277797;28;20049;-71
2023/07/22 06:33:42;;;;;;;13.20;5.32;;;;;;;13.88;100.00;101086.25;6277556;28;20060;-71
2023/07/22 06:36:43;;;;;;;15.10;5.93;;;;;;;13.95;100.00;101087.59;6277054;28;20666;-72
2023/07/22 06:39:44;;;;;;;12.05;5.35;;;;;;;13.87;100.00;101087.19;6277852;28;20064;-72
2023/07/22 06:42:47;;;;;;;19.08;4.63;;;;;;;13.95;100.00;101090.22;6285426;28;20045;-72
2023/07/22 06:45:49;;;;;;;14.80;6.38;;;;;;;13.96;100.00;101089.28;6277510;28;20429;-72
2023/07/22 06:48:50;;;;;;;11.52;5.00;;;;;;;14.04;100.00;101096.72;6276266;28;20052;-72
2023/07/22 06:51:52;;;;;;;14.07;5.60;;;;;;;14.08;100.00;101095.56;6273456;28;20045;-72
2023/07/22 06:54:53;;;;;;;18.42;5.40;;;;;;;14.00;100.00;101095.22;6277459;28;20049;-72
2023/07/22 06:57:58;;;;;;;14.52;5.43;;;;;;;14.05;100.00;101093.97;6276988;28;20052;-72
2023/07/22 07:00:59;;;;;;;14.40;5.93;;;;;;;14.05;100.00;101093.97;6277033;28;20049;-72
2023/07/22 07:04:00;;;;;;;16.40;4.82;;;;;;;14.18;100.00;101091.44;6276598;28;20067;-71
2023/07/22 07:07:02;;;;;;;13.30;5.13;;;;;;;14.23;100.00;101093.78;6277091;28;20591;-71
2023/07/22 07:10:04;;;;;;;14.80;5.03;;;;;;;14.29;100.00;101093.38;6276691;28;20523;-71
2023/07/22 07:13:07;;;;;;;13.25;5.45;;;;;;;14.24;100.00;101093.69;6284802;28;20559;-71
2023/07/22 07:16:21;;;;;;;8.82;4.00;;;;;;;14.32;100.00;101095.84;6275794;28;20056;-71
2023/07/22 07:19:23;;;;;;;10.63;4.40;;;;;;;14.36;100.00;101095.56;6276241;28;20476;-71
2023/07/22 07:22:24;;;;;;;13.85;4.50;;;;;;;14.43;100.00;101096.00;6276488;28;20041;-71
2023/07/22 07:25:26;;;;;;;17.25;5.18;;;;;;;14.50;100.00;101099.16;6276363;28;20053;-71
2023/07/22 07:28:28;;;;;;;8.80;4.38;;;;;;;14.52;100.00;101102.53;6276741;28;20049;-71
2023/07/22 07:31:30;;;;;;;15.27;5.72;;;;;;;14.52;100.00;101099.88;6268051;28;20052;-71
2023/07/22 07:34:31;;;;;;;14.93;5.32;;;;;;;14.56;100.00;101099.59;6275126;28;20071;-71
2023/07/22 07:37:33;;;;;;;9.73;4.40;;;;;;;14.64;100.00;101102.59;6276042;28;20053;-71
2023/07/22 07:40:34;;;;;;;12.35;4.68;;;;;;;14.65;100.00;101109.56;6276321;28;20042;-71
2023/07/22 07:43:38;;;;;;;16.27;5.07;;;;;;;14.68;100.00;101111.19;6275571;28;20059;-71
2023/07/22 07:46:39;;;;;;;17.27;5.60;;;;;;;14.68;100.00;101106.75;6270327;28;20052;-71
2023/07/22 07:49:40;;;;;;;9.95;4.70;;;;;;;14.74;100.00;101102.84;6271973;28;20456;-71
2023/07/22 07:52:42;;;;;;;13.60;5.30;;;;;;;14.73;100.00;101105.59;6271338;28;20052;-71
2023/07/22 07:55:43;;;;;;;20.73;5.75;;;;;;;14.74;100.00;101107.28;6275711;28;20045;-71
2023/07/22 07:58:47;;;;;;;9.93;4.85;;;;;;;14.79;100.00;101113.97;6275657;28;20052;-71
2023/07/22 08:01:48;;;;;;;14.85;5.05;;;;;;;14.85;100.00;101110.94;6275548;28;20049;-71
2023/07/22 08:04:50;;;;;;;14.05;4.57;;;;;;;14.97;100.00;101114.56;6272934;28;20049;-71
2023/07/22 08:07:51;;;;;;;13.45;5.65;;;;;;;15.01;100.00;101109.94;6270624;28;20579;-71
2023/07/22 08:10:59;;;;;;;11.00;5.25;;;;;;;15.05;100.00;101116.72;6270118;28;20049;-71
2023/07/22 08:14:01;;;;;;;11.80;4.50;;;;;;;15.08;100.00;101112.06;6270858;28;20122;-71
2023/07/22 08:17:03;;;;;;;9.48;4.30;;;;;;;15.08;100.00;101111.19;6275371;28;20057;-71
2023/07/22 08:20:08;;;;;;;10.93;5.15;;;;;;;15.10;100.00;101112.81;6274200;28;20071;-71
2023/07/22 08:23:09;;;;;;;9.70;5.10;;;;;;;15.14;100.00;101113.47;6274192;28;20128;-71
2023/07/22 08:26:10;;;;;;;12.32;4.72;;;;;;;15.21;100.00;101110.31;6275298;28;20045;-71
2023/07/22 08:29:14;;;;;;;11.45;5.10;;;;;;;15.30;100.00;101110.63;6275216;28;20064;-71
2023/07/22 08:32:15;;;;;;;9.82;4.13;;;;;;;15.37;100.00;101111.91;6274962;28;20119;-71
2023/07/22 08:35:18;;;;;;;10.27;4.22;;;;;;;15.45;100.00;101101.66;6274959;28;20044;-71
2023/07/22 08:38:19;;;;;;;10.98;4.32;;;;;;;15.52;100.00;101108.22;6265032;28;20467;-71
2023/07/22 08:41:22;;;;;;;10.73;5.05;;;;;;;15.56;100.00;101098.25;6274834;28;20048;-71
2023/07/22 08:44:30;;;;;;;9.05;4.40;;;;;;;15.59;100.00;101098.06;6274759;28;20052;-72
2023/07/22 08:47:33;;;;;;;10.50;4.43;;;;;;;15.64;100.00;101107.41;6267137;28;20049;-71
2023/07/22 08:50:41;;;;;;;10.40;4.50;;;;;;;15.67;100.00;101112.53;6283167;28;20049;-71
2023/07/22 08:53:43;;;;;;;7.95;4.35;;;;;;;15.76;100.00;101107.50;6274333;28;20056;-72
2023/07/22 08:56:45;;;;;;;11.30;5.05;;;;;;;15.87;100.00;101103.16;6274665;28;20049;-71
2023/07/22 08:59:48;;;;;;;9.38;4.68;;;;;;;15.98;100.00;101102.41;6275409;28;20049;-72
2023/07/22 09:02:51;;;;;;;8.40;4.15;;;;;;;16.05;100.00;101108.16;6279613;28;20041;-71
2023/07/22 09:05:52;;;;;;;7.85;3.30;;;;;;;16.07;100.00;101107.06;6278155;28;20056;-71
2023/07/22 09:08:54;;;;;;;9.35;4.35;;;;;;;16.12;100.00;101109.38;6277473;28;20052;-71
2023/07/22 09:11:57;;;;;;;9.07;3.70;;;;;;;16.13;100.00;101105.81;6277277;28;20464;-71
2023/07/22 09:15:00;;;;;;;10.65;4.20;;;;;;;16.14;100.00;101103.03;6277348;28;20049;-71
2023/07/22 09:18:01;;;;;;;7.78;3.80;;;;;;;16.18;100.00;101111.63;6277811;28;20045;-72
2023/07/22 09:21:03;;;;;;;9.23;4.03;;;;;;;16.12;100.00;101104.09;6279004;28;20516;-71
2023/07/22 09:24:21;;;;;;;8.23;3.95;;;;;;;16.11;100.00;101097.09;6278967;28;20365;-71
2023/07/22 09:27:34;;;;;;;10.87;3.87;;;;;;;16.22;100.00;101105.16;6279471;28;20044;-71
2023/07/22 09:30:39;;;;;;;7.28;3.30;;;;;;;16.24;100.00;101098.75;6279489;28;20327;-71
2023/07/22 09:33:40;;;;;;;13.45;4.75;;;;;;;16.33;100.00;101096.41;6278851;28;20041;-71
2023/07/22 09:36:52;;;;;;;10.63;3.70;;;;;;;16.39;100.00;101099.47;6279231;28;20429;-71
2023/07/22 09:39:53;;;;;;;9.73;4.05;;;;;;;16.49;100.00;101095.22;6279134;28;20429;-71
2023/07/22 09:42:56;;;;;;;11.23;4.70;;;;;;;16.56;100.00;101092.94;6277907;28;20511;-71
2023/07/22 09:46:06;;;;;;;7.75;4.10;;;;;;;16.60;100.00;101094.41;6278931;28;20048;-72
2023/07/22 09:49:11;;;;;;;11.70;4.55;;;;;;;16.55;100.00;101090.41;6278779;28;20048;-72
2023/07/22 09:52:13;;;;;;;9.40;4.00;;;;;;;16.63;100.00;101088.91;6278642;28;20171;-72
2023/07/22 09:55:16;;;;;;;7.85;3.65;;;;;;;16.62;100.00;101095.16;6278619;28;20052;-72
2023/07/22 09:58:17;;;;;;;10.90;4.20;;;;;;;16.58;100.00;101085.72;6278795;28;20052;-72
2023/07/22 10:01:24;;;;;;;12.43;3.65;;;;;;;16.65;100.00;101089.63;6278482;28;20063;-72
2023/07/22 10:04:29;;;;;;;10.52;3.83;;;;;;;16.80;100.00;101092.13;6278429;28;20063;-71
2023/07/22 10:07:31;;;;;;;8.10;3.95;;;;;;;16.92;100.00;101084.09;6278254;28;20052;-71
2023/07/22 10:10:33;;;;;;;8.13;3.40;;;;;;;16.95;100.00;101089.19;6270458;28;20056;-72
2023/07/22 10:13:35;;;;;;;8.52;3.45;;;;;;;17.08;100.00;101083.81;6274133;28;20349;-71
2023/07/22 10:16:38;;;;;;;8.00;3.65;;;;;;;17.05;100.00;101078.72;6276435;28;20045;-71
2023/07/22 10:19:40;;;;;;;6.53;4.03;;;;;;;17.14;100.00;101077.19;6276756;28;20049;-71
2023/07/22 10:22:43;;;;;;;8.65;4.22;;;;;;;17.17;100.00;101074.31;6277301;28;20492;-71
2023/07/22 10:25:47;;;;;;;8.48;4.22;;;;;;;17.29;100.00;101075.16;6278015;28;20045;-71
2023/07/22 10:28:49;;;;;;;9.38;4.40;;;;;;;17.44;100.00;101071.34;6278090;28;20040;-73
2023/07/22 10:31:54;;;;;;;10.88;4.65;;;;;;;17.41;100.00;101055.66;6277913;28;20041;-71
2023/07/22 10:34:55;;;;;;;9.52;5.38;;;;;;;17.45;100.00;101057.94;6277544;28;20049;-71
2023/07/22 10:38:07;;;;;;;7.15;4.00;;;;;;;17.55;100.00;101049.25;6277783;28;20052;-71
2023/07/22 10:41:17;;;;;;;7.78;4.18;;;;;;;17.51;100.00;101064.59;6277463;28;20049;-72
2023/07/22 10:44:19;;;;;;;6.72;4.32;;;;;;;17.57;100.00;101053.47;6277401;28;20041;-71
2023/07/22 10:47:34;;;;;;;8.30;5.50;;;;;;;17.62;100.00;101059.31;6277462;28;20052;-72
2023/07/22 10:50:40;;;;;;;6.55;3.70;;;;;;;17.74;100.00;101050.38;6275664;28;20047;-72
2023/07/22 10:53:44;;;;;;;7.35;4.13;;;;;;;17.83;100.00;101051.47;6276755;28;20341;-71
2023/07/22 10:56:46;;;;;;;8.15;4.20;;;;;;;17.96;100.00;101051.34;6275548;28;20053;-71
2023/07/22 10:59:50;;;;;;;12.75;4.45;;;;;;;18.11;100.00;101050.13;6276761;28;20132;-71
2023/07/22 11:03:11;;;;;;;5.43;3.38;;;;;;;18.34;100.00;101048.25;6276738;28;20045;-75
2023/07/22 11:06:15;;;;;;;5.40;3.33;;;;;;;18.35;100.00;101043.78;6277199;28;20045;-73
2023/07/22 11:09:35;;;;;;;7.35;4.03;;;;;;;18.33;100.00;101048.41;6276992;28;20045;-73
2023/07/22 11:12:40;;;;;;;8.70;3.63;;;;;;;18.32;100.00;101041.38;6276197;28;20045;-72
2023/07/22 11:15:48;;;;;;;6.15;3.50;;;;;;;18.33;100.00;101035.09;6276811;28;20080;-72
2023/07/22 11:18:50;;;;;;;7.63;3.97;;;;;;;18.31;100.00;101029.06;6276500;28;20338;-71
2023/07/22 11:21:54;;;;;;;9.07;4.00;;;;;;;18.25;100.00;101030.38;6275316;28;20045;-71
2023/07/22 11:24:56;;;;;;;7.82;3.75;;;;;;;18.23;100.00;101027.84;6275937;28;20500;-73
2023/07/22 11:27:58;;;;;;;6.32;3.90;;;;;;;18.24;100.00;101021.56;6272446;28;20053;-72
2023/07/22 11:31:01;;;;;;;5.82;3.70;;;;;;;18.22;100.00;101020.84;6276199;28;20121;-71
2023/07/22 11:34:04;;;;;;;6.07;3.80;;;;;;;18.18;100.00;101019.41;6273415;28;20122;-72
2023/07/22 11:37:06;;;;;;;7.38;3.28;;;;;;;18.19;100.00;101014.94;6272798;28;20056;-72
2023/07/22 11:40:12;;;;;;;8.23;3.70;;;;;;;18.18;100.00;101007.94;6275425;28;20055;-72
2023/07/22 11:43:14;;;;;;;5.78;3.88;;;;;;;18.21;100.00;101002.34;6274935;28;20044;-71
2023/07/22 11:46:16;;;;;;;6.85;3.47;;;;;;;18.30;100.00;101004.25;6276012;28;20471;-71
2023/07/22 11:49:30;;;;;;;4.95;2.88;;;;;;;18.30;100.00;101000.75;6276003;28;20052;-71
2023/07/22 11:52:31;;;;;;;5.55;3.25;;;;;;;18.46;100.00;100999.38;6275851;28;20140;-72
2023/07/22 11:55:35;;;;;;;3.67;2.70;;;;;;;18.42;100.00;101000.59;6275863;28;20045;-72
2023/07/22 11:58:38;;;;;;;6.63;3.42;;;;;;;18.41;100.00;101000.72;6275963;28;20051;-72
2023/07/22 12:01:39;;;;;;;5.05;2.28;;;;;;;18.37;100.00;101005.44;6275217;28;20041;-71
2023/07/22 12:04:42;;;;;;;5.70;3.10;;;;;;;18.38;100.00;101004.47;6269960;28;20041;-74
2023/07/22 12:07:44;;;;;;;5.18;2.55;;;;;;;18.36;100.00;100995.78;6275550;28;20049;-72
2023/07/22 12:10:45;;;;;;;3.92;2.60;;;;;;;18.27;100.00;101001.00;6275296;28;20059;-73
2023/07/22 12:13:50;;;;;;;6.20;2.88;;;;;;;18.23;100.00;101008.38;6274869;28;20045;-73
2023/07/22 12:16:57;;;;;;;7.50;3.40;;;;;;;18.24;100.00;101010.06;6274539;28;20136;-71
2023/07/22 12:20:00;;;;;;;6.47;3.65;;;;;;;18.23;100.00;101008.38;6274943;28;20045;-72
2023/07/22 12:23:01;;;;;;;10.45;2.75;;;;;;;18.31;100.00;101003.28;6270903;28;20445;-72
2023/07/22 12:26:03;;;;;;;7.25;2.88;;;;;;;18.33;100.00;101003.16;6270106;28;20045;-72
2023/07/22 12:29:04;;;;;;;6.97;3.45;;;;;;;18.35;100.00;101007.41;6272851;28;20445;-73
2023/07/22 12:32:06;;;;;;;8.05;3.00;;;;;;;18.38;100.00;101001.81;6274322;28;20315;-72
2023/07/22 12:35:10;;;;;;;8.10;3.85;;;;;;;18.31;100.00;100997.97;6270208;28;20057;-73
2023/07/22 12:38:11;;;;;;;5.05;3.20;;;;;;;18.36;100.00;101001.09;6264824;28;20418;-72
2023/07/22 12:41:13;;;;;;;7.45;3.53;;;;;;;18.30;100.00;100998.91;6262556;28;20053;-72
2023/07/22 12:44:14;;;;;;;8.27;3.70;;;;;;;18.36;100.00;101000.25;6269785;28;20426;-72
2023/07/22 12:47:16;;;;;;;8.27;3.25;;;;;;;18.49;100.00;100995.63;6274521;28;20041;-72
2023/07/22 12:50:18;;;;;;;5.85;2.72;;;;;;;18.56;100.00;100988.78;6274494;28;20045;-73
2023/07/22 12:53:20;;;;;;;6.65;3.15;;;;;;;18.62;100.00;100990.09;6274179;28;20348;-77
2023/07/22 12:56:21;;;;;;;7.93;2.95;;;;;;;18.79;100.00;100980.75;6264586;28;20048;-74
2023/07/22 12:59:23;;;;;;;6.13;2.63;;;;;;;18.90;100.00;100984.19;6266789;28;20049;-73
2023/07/22 13:02:25;;;;;;;9.45;3.45;;;;;;;18.93;100.00;100985.75;6283757;28;20052;-75
2023/07/22 13:05:28;;;;;;;8.70;2.80;;;;;;;18.94;100.00;100984.75;6252736;28;20465;-73
2023/07/22 13:08:29;;;;;;;10.43;2.90;;;;;;;18.98;100.00;100976.38;6271128;28;20041;-74
2023/07/22 13:11:31;;;;;;;5.50;2.80;;;;;;;18.91;100.00;100979.72;6272999;28;20052;-74
2023/07/22 13:14:32;;;;;;;5.18;2.95;;;;;;;18.88;100.00;100972.81;6272931;28;20044;-73
2023/07/22 13:17:33;;;;;;;8.90;3.47;;;;;;;18.85;100.00;100970.44;6274445;28;20052;-73
2023/07/22 13:20:36;;;;;;;5.50;3.25;;;;;;;18.76;100.00;100960.56;6274737;28;20056;-74
2023/07/22 13:23:38;;;;;;;4.78;2.85;;;;;;;18.74;100.00;100960.66;6271848;28;20357;-74
2023/07/22 13:26:39;;;;;;;4.85;2.90;;;;;;;18.72;100.00;100964.44;6274718;28;20049;-74
2023/07/22 13:29:40;;;;;;;4.93;2.67;;;;;;;18.72;100.00;100962.63;6274285;28;20041;-73
2023/07/22 13:32:42;;;;;;;7.03;2.75;;;;;;;18.73;100.00;100966.13;6273673;28;20041;-73
2023/07/22 13:35:44;;;;;;;8.48;3.80;;;;;;;18.80;100.00;100955.78;6275437;28;20057;-73
2023/07/22 13:38:46;;;;;;;6.97;3.60;;;;;;;18.78;100.00;100957.75;6281284;28;20045;-73
2023/07/22 13:41:48;;;;;;;12.07;3.80;;;;;;;18.80;100.00;100951.31;6274071;28;20052;-73
2023/07/22 13:44:49;;;;;;;7.00;3.67;;;;;;;18.82;100.00;100953.88;6270021;28;20072;-73
2023/07/22 13:47:51;;;;;;;5.95;3.53;;;;;;;18.85;100.00;100954.47;6277873;28;20052;-73
2023/07/22 13:50:53;;;;;;;5.95;3.95;;;;;;;18.85;100.00;100949.13;6278752;28;20056;-73
2023/07/22 13:53:55;;;;;;;11.32;4.13;;;;;;;18.91;100.00;100943.28;6278536;28;20417;-73